Terminal Aerodrome Forecast
Issued by NWS Upton, NY

Home | Current Version | Previous Version | Text Only | Print | Product List | Glossary On
Versions: 1 2 3 4 5 6 7 8 9 10 11 12 13 14 15 16 17 18 19 20 21 22 23 24 25 26
000
FTUS41 KOKX 010800 AAA
TAFBDR
TAF AMD
KBDR 010820Z 0108/0206 21005KT P6SM SCT015 BKN250
      TEMPO 0109/0113 BKN015
     FM011500 16007KT P6SM SCT250
     FM011900 18010KT P6SM FEW070 SCT250
     FM020000 18006KT P6SM FEW060 BKN150
     FM020500 VRB05KT P6SM SCT050 BKN100=

USA.gov is the U.S. government's official web portal to all federal, state and local government web resources and services.